Weather at Haddon Rig Airport

Public forecast

Using degrees Celsius for public forecast. Weather courtesy of forecast.io.

Closest aviation weather report (METAR) to Haddon Rig Airport

Report is more than 6 hours old.

Closest report is Coonamble Airport, 38.2 nm (70.8 km) NE. Retrieved 2022/06/03 09:27 UTC (22 days ago):

YCNM 030927Z AUTO 30007KT 290V100 //// // ////// 09/09 Q1013

Closest aviation forecast (TAF) to Haddon Rig Airport

Forecast is more than 6 hours old.

Closest forecast is Dubbo City Regional Airport, 56.9 nm (105.3 km) SE. Retrieved 2022/06/25 12:36 UTC (7 hours ago):

TAF YSDU 251109Z 2512/2606 VRB03KT CAVOK FM260100 28008KT CAVOK PROB30 2514/2523 0500 FG BKN003